createdAt,value
2022-09-01T00:00:13.661Z,101388.34
2022-09-01T00:02:43.401Z,101393.72
2022-09-01T00:05:13.112Z,101397.19
2022-09-01T00:07:40.537Z,101394.66
2022-09-01T00:10:09.033Z,101400.88
2022-09-01T00:12:36.928Z,101398.28
2022-09-01T00:15:06.721Z,101399.22
2022-09-01T00:17:34.579Z,101399.31
2022-09-01T00:20:01.649Z,101396.66
2022-09-01T00:22:29.664Z,101388.88
2022-09-01T00:24:56.969Z,101390.59
2022-09-01T00:27:27.951Z,101386.22
2022-09-01T00:29:58.850Z,101389.72
2022-09-01T00:32:26.257Z,101383.59
2022-09-01T00:34:53.435Z,101373.91
2022-09-01T00:37:20.547Z,101378.28
2022-09-01T00:39:47.651Z,101372.22
2022-09-01T00:42:14.747Z,101373.06
2022-09-01T00:44:41.958Z,101371.44
2022-09-01T00:47:09.053Z,101370.63
2022-09-01T00:49:41.801Z,101362.72
2022-09-01T00:52:16.122Z,101360.16
2022-09-01T00:54:48.151Z,101367.13
2022-09-01T00:57:16.273Z,101362.69
2022-09-01T00:59:52.620Z,101361.06
2022-09-01T01:02:19.789Z,101355.72
2022-09-01T01:04:47.040Z,101361.88
2022-09-01T01:07:20.383Z,101366.34
2022-09-01T01:09:48.315Z,101355.75
2022-09-01T01:12:17.757Z,101359.34
2022-09-01T01:14:50.951Z,101364.72
2022-09-01T01:17:21.769Z,101358.47
2022-09-01T01:20:20.229Z,101362.06
2022-09-01T01:23:10.719Z,101364.84
2022-09-01T01:25:44.587Z,101362.97
2022-09-01T01:28:25.998Z,101363.81
2022-09-01T01:31:15.761Z,101362.88
2022-09-01T01:33:50.013Z,101355.81
2022-09-01T01:36:19.496Z,101361.97
2022-09-01T01:38:49.842Z,101362.00
2022-09-01T01:41:27.184Z,101354.94
2022-09-01T01:43:54.341Z,101350.56
2022-09-01T01:46:21.810Z,101349.69
2022-09-01T01:48:52.570Z,101358.56
2022-09-01T01:51:25.161Z,101348.00
2022-09-01T01:53:52.944Z,101342.66
2022-09-01T01:56:22.893Z,101344.50
2022-09-01T01:58:56.432Z,101344.44
2022-09-01T02:01:25.567Z,101345.50
2022-09-01T02:03:56.108Z,101353.56
2022-09-01T02:06:28.288Z,101343.06
2022-09-01T02:08:58.480Z,101342.22
2022-09-01T02:11:26.780Z,101340.38
2022-09-01T02:13:57.502Z,101342.06
2022-09-01T02:16:28.337Z,101343.84
2022-09-01T02:18:56.774Z,101342.09
2022-09-01T02:21:25.623Z,101340.44
2022-09-01T02:24:01.280Z,101347.44
2022-09-01T02:26:39.743Z,101344.81
2022-09-01T02:29:18.270Z,101338.66
2022-09-01T02:31:47.810Z,101344.81
2022-09-01T02:34:15.118Z,101333.28
2022-09-01T02:36:49.183Z,101335.88
2022-09-01T02:39:27.431Z,101335.91
2022-09-01T02:41:55.306Z,101332.44
2022-09-01T02:44:29.373Z,101328.88
2022-09-01T02:46:57.878Z,101340.34
2022-09-01T02:49:28.835Z,101335.13
2022-09-01T02:52:02.007Z,101338.59
2022-09-01T02:54:32.448Z,101336.81
2022-09-01T02:57:00.343Z,101332.38
2022-09-01T03:01:54.931Z,101333.31
2022-09-01T03:04:22.733Z,101331.50
2022-09-01T03:06:55.299Z,101335.84
2022-09-01T03:09:22.780Z,101326.19
2022-09-01T03:11:52.119Z,101327.13
2022-09-01T03:14:19.696Z,101325.34
2022-09-01T03:16:47.085Z,101328.00
2022-09-01T03:19:19.379Z,101323.47
2022-09-01T03:21:48.914Z,101324.47
2022-09-01T03:24:22.585Z,101326.25
2022-09-01T03:26:51.884Z,101320.94
2022-09-01T03:29:19.948Z,101314.78
2022-09-01T03:31:50.449Z,101310.34
2022-09-01T03:34:23.753Z,101311.25
2022-09-01T03:36:54.624Z,101305.16
2022-09-01T03:39:29.917Z,101310.44
2022-09-01T03:41:58.542Z,101299.88
2022-09-01T03:44:26.813Z,101304.28
2022-09-01T03:46:54.060Z,101299.88
2022-09-01T03:49:28.023Z,101298.13
2022-09-01T03:51:58.597Z,101302.66
2022-09-01T03:54:28.108Z,101300.78
2022-09-01T03:56:55.670Z,101299.00
2022-09-01T04:02:57.995Z,101302.69
2022-09-01T04:05:31.781Z,101294.72
2022-09-01T04:08:03.846Z,101285.81
2022-09-01T04:10:33.083Z,101291.97
2022-09-01T04:13:00.686Z,101293.72
2022-09-01T04:15:29.067Z,101288.44
2022-09-01T04:18:22.249Z,101290.16
2022-09-01T04:20:58.496Z,101288.44
2022-09-01T04:23:38.577Z,101287.53
2022-09-01T04:26:15.348Z,101284.00
2022-09-01T04:28:47.163Z,101288.44
2022-09-01T04:31:19.455Z,101283.06
2022-09-01T04:33:53.997Z,101288.38
2022-09-01T04:36:26.976Z,101289.22
2022-09-01T04:38:59.558Z,101299.78
2022-09-01T04:41:32.726Z,101295.41
2022-09-01T04:44:06.010Z,101292.75
2022-09-01T04:46:50.351Z,101288.38
2022-09-01T04:49:48.646Z,101293.63
2022-09-01T04:52:19.985Z,101289.19
2022-09-01T04:54:49.193Z,101290.19
2022-09-01T04:57:19.292Z,101288.38
2022-09-01T04:59:47.575Z,101291.88
2022-09-01T05:02:14.850Z,101294.50
2022-09-01T05:04:50.722Z,101298.88
2022-09-01T05:07:18.140Z,101292.75
2022-09-01T05:09:45.806Z,101294.50
2022-09-01T05:12:31.577Z,101289.19
2022-09-01T05:15:02.264Z,101292.72
2022-09-01T05:17:30.081Z,101293.63
2022-09-01T05:19:58.517Z,101291.88
2022-09-01T05:22:28.247Z,101295.41
2022-09-01T05:25:21.648Z,101299.78
2022-09-01T05:27:52.964Z,101289.25
2022-09-01T05:30:22.865Z,101291.09
2022-09-01T05:32:54.396Z,101298.13
2022-09-01T05:35:24.938Z,101294.50
2022-09-01T05:38:04.092Z,101295.41
2022-09-01T05:40:32.661Z,101301.56
2022-09-01T05:43:01.090Z,101304.94
2022-09-01T05:45:36.459Z,101308.50
2022-09-01T05:48:23.901Z,101306.69
2022-09-01T05:50:56.966Z,101311.88
2022-09-01T05:53:25.683Z,101313.63
2022-09-01T05:55:57.207Z,101311.78
2022-09-01T06:01:41.395Z,101305.66
2022-09-01T06:04:15.918Z,101310.06
2022-09-01T06:07:05.975Z,101310.03
2022-09-01T06:09:51.291Z,101315.38
2022-09-01T06:12:25.993Z,101319.81
2022-09-01T06:14:57.463Z,101322.47
2022-09-01T06:17:27.455Z,101321.50
2022-09-01T06:19:59.321Z,101325.78
2022-09-01T06:22:29.179Z,101329.34
2022-09-01T06:25:02.781Z,101336.25
2022-09-01T06:27:43.067Z,101331.75
2022-09-01T06:30:23.154Z,101341.53
2022-09-01T06:33:09.563Z,101339.56
2022-09-01T06:35:41.093Z,101338.75
2022-09-01T06:38:13.213Z,101334.19
2022-09-01T06:40:45.790Z,101340.34
2022-09-01T06:43:19.516Z,101337.66
2022-09-01T06:45:54.937Z,101347.22
2022-09-01T06:48:24.498Z,101339.22
2022-09-01T06:51:21.189Z,101345.34
2022-09-01T06:53:57.339Z,101350.59
2022-09-01T06:56:32.579Z,101350.50
2022-09-01T06:59:07.461Z,101348.66
2022-09-01T07:01:39.634Z,101354.88
2022-09-01T07:04:12.776Z,101356.53
2022-09-01T07:07:01.467Z,101347.59
2022-09-01T07:10:18.498Z,101350.19
2022-09-01T07:13:12.419Z,101347.38
2022-09-01T07:18:34.826Z,101343.72
2022-09-01T07:21:36.574Z,101350.75
2022-09-01T07:27:20.562Z,101342.03
2022-09-01T07:29:53.731Z,101353.47
2022-09-01T07:35:11.929Z,101348.97
2022-09-01T07:42:30.448Z,101351.66
2022-09-01T07:53:13.000Z,101349.19
2022-09-01T07:55:43.737Z,101354.41
2022-09-01T07:58:15.718Z,101357.66
2022-09-01T08:00:52.924Z,101357.50
2022-09-01T08:03:23.890Z,101368.88
2022-09-01T08:06:01.353Z,101360.56
2022-09-01T08:08:36.473Z,101365.84
2022-09-01T08:12:03.252Z,101372.31
2022-09-01T08:14:34.925Z,101371.66
2022-09-01T08:20:08.105Z,101364.78
2022-09-01T08:22:58.776Z,101357.72
2022-09-01T08:25:49.679Z,101364.88
2022-09-01T08:28:54.725Z,101370.88
2022-09-01T08:31:31.729Z,101360.59
2022-09-01T08:34:03.089Z,101366.94
2022-09-01T08:36:35.430Z,101360.66
2022-09-01T08:39:07.406Z,101372.34
2022-09-01T08:41:59.944Z,101367.28
2022-09-01T08:44:45.452Z,101367.38
2022-09-01T08:47:35.531Z,101368.88
2022-09-01T08:50:10.334Z,101369.16
2022-09-01T08:53:17.184Z,101367.81
2022-09-01T08:55:58.793Z,101368.84
2022-09-01T08:58:32.506Z,101371.03
2022-09-01T09:01:49.601Z,101371.19
2022-09-01T09:04:35.452Z,101370.22
2022-09-01T09:07:31.525Z,101366.38
2022-09-01T09:10:19.490Z,101364.19
2022-09-01T09:13:09.666Z,101371.59
2022-09-01T09:16:14.226Z,101372.78
2022-09-01T09:19:19.695Z,101369.69
2022-09-01T09:22:01.244Z,101372.44
2022-09-01T09:24:54.290Z,101363.34
2022-09-01T09:27:27.263Z,101364.53
2022-09-01T09:30:04.242Z,101367.56
2022-09-01T09:35:47.067Z,101364.44
2022-09-01T09:38:32.850Z,101365.84
2022-09-01T09:41:27.040Z,101363.47
2022-09-01T09:44:08.303Z,101354.69
2022-09-01T09:46:56.491Z,101353.38
2022-09-01T09:50:07.258Z,101362.03
2022-09-01T09:52:51.830Z,101350.31
2022-09-01T09:55:40.737Z,101351.41
2022-09-01T10:01:05.255Z,101344.22
2022-09-01T10:03:52.697Z,101341.47
2022-09-01T10:06:49.303Z,101340.63
2022-09-01T10:09:38.265Z,101338.56
2022-09-01T10:12:40.305Z,101338.97
2022-09-01T10:15:23.599Z,101340.25
2022-09-01T10:18:29.656Z,101333.03
2022-09-01T10:21:32.307Z,101335.16
2022-09-01T10:24:44.736Z,101343.41
2022-09-01T10:27:40.406Z,101337.47
2022-09-01T10:30:26.882Z,101335.25
2022-09-01T10:33:19.317Z,101341.13
2022-09-01T10:36:07.974Z,101335.63
2022-09-01T10:39:04.574Z,101323.19
2022-09-01T10:42:13.118Z,101323.72
2022-09-01T10:45:04.805Z,101321.13
2022-09-01T10:47:38.912Z,101312.13
2022-09-01T10:50:45.981Z,101310.72
2022-09-01T10:53:41.590Z,101314.81
2022-09-01T10:56:43.646Z,101316.78
2022-09-01T10:59:32.119Z,101313.69
2022-09-01T11:02:27.506Z,101323.00
2022-09-01T11:04:55.741Z,101313.06
2022-09-01T11:08:00.496Z,101307.38
2022-09-01T11:10:49.402Z,101318.09
2022-09-01T11:14:05.666Z,101314.31
2022-09-01T11:16:47.993Z,101315.03
2022-09-01T11:19:48.265Z,101323.47
2022-09-01T11:22:42.082Z,101321.50
2022-09-01T11:25:42.011Z,101314.25
2022-09-01T11:28:44.236Z,101319.91
2022-09-01T11:34:55.720Z,101323.31
2022-09-01T11:37:52.407Z,101324.41
2022-09-01T11:40:45.615Z,101318.00
2022-09-01T11:43:30.308Z,101321.19
2022-09-01T11:46:37.628Z,101321.38
2022-09-01T11:50:10.520Z,101314.09
2022-09-01T11:53:02.585Z,101310.16
2022-09-01T11:55:55.414Z,101320.63
2022-09-01T11:58:35.919Z,101316.78
2022-09-01T12:01:47.822Z,101306.66
2022-09-01T12:04:43.409Z,101312.31
2022-09-01T12:07:47.824Z,101309.53
2022-09-01T12:10:24.839Z,101302.53
2022-09-01T12:13:26.166Z,101299.16
2022-09-01T12:16:18.774Z,101302.13
2022-09-01T12:19:06.537Z,101290.81
2022-09-01T12:22:07.410Z,101289.97
2022-09-01T12:25:01.453Z,101282.63
2022-09-01T12:27:44.516Z,101283.09
2022-09-01T12:30:28.362Z,101281.41
2022-09-01T12:36:31.046Z,101278.66
2022-09-01T12:39:46.307Z,101272.81
2022-09-01T12:42:28.767Z,101271.72
2022-09-01T12:45:40.811Z,101275.50
2022-09-01T12:48:42.867Z,101262.94
2022-09-01T12:51:30.914Z,101263.81
2022-09-01T12:54:09.401Z,101271.66
2022-09-01T12:56:51.632Z,101265.50
2022-09-01T12:59:37.281Z,101270.56
2022-09-01T13:02:47.773Z,101258.13
2022-09-01T13:05:41.579Z,101259.50
2022-09-01T13:08:30.062Z,101262.63
2022-09-01T13:11:17.132Z,101253.81
2022-09-01T13:13:58.899Z,101253.38
2022-09-01T13:16:42.687Z,101251.16
2022-09-01T13:19:40.188Z,101255.84
2022-09-01T13:22:19.249Z,101253.41
2022-09-01T13:24:53.466Z,101257.13
2022-09-01T13:27:35.415Z,101257.81
2022-09-01T13:30:10.968Z,101253.03
2022-09-01T13:35:34.645Z,101246.13
2022-09-01T13:38:07.303Z,101245.13
2022-09-01T13:40:42.213Z,101236.78
2022-09-01T13:43:17.707Z,101237.38
2022-09-01T13:45:48.846Z,101240.31
2022-09-01T13:48:18.063Z,101241.03
2022-09-01T13:53:45.943Z,101229.69
2022-09-01T13:56:15.134Z,101227.09
2022-09-01T13:58:48.737Z,101221.69
2022-09-01T14:01:37.170Z,101231.53
2022-09-01T14:04:10.935Z,101228.22
2022-09-01T14:06:51.264Z,101219.66
2022-09-01T14:09:20.720Z,101214.75
2022-09-01T14:12:13.364Z,101207.78
2022-09-01T14:20:52.363Z,101205.41
2022-09-01T14:23:39.156Z,101188.16
2022-09-01T14:26:19.756Z,101193.59
2022-09-01T14:28:51.352Z,101194.03
2022-09-01T14:31:19.869Z,101182.28
2022-09-01T14:33:51.865Z,101194.44
2022-09-01T14:36:28.453Z,101186.06
2022-09-01T14:39:08.634Z,101182.19
2022-09-01T14:42:00.548Z,101189.00
2022-09-01T14:44:41.285Z,101185.53
2022-09-01T14:47:25.032Z,101186.03
2022-09-01T14:50:11.049Z,101189.81
2022-09-01T14:52:44.671Z,101186.34
2022-09-01T14:55:18.007Z,101181.25
2022-09-01T14:57:45.487Z,101174.13
2022-09-01T15:00:34.646Z,101183.41
2022-09-01T15:03:05.372Z,101183.06
2022-09-01T15:05:39.010Z,101177.84
2022-09-01T15:08:19.074Z,101185.28
2022-09-01T15:10:47.061Z,101174.66
2022-09-01T15:16:18.973Z,101163.00
2022-09-01T15:19:04.869Z,101153.94
2022-09-01T15:21:50.276Z,101158.06
2022-09-01T15:24:30.167Z,101160.06
2022-09-01T15:27:00.219Z,101147.38
2022-09-01T15:29:27.682Z,101150.44
2022-09-01T15:32:00.127Z,101150.50
2022-09-01T15:34:55.697Z,101154.94
2022-09-01T15:37:26.439Z,101153.06
2022-09-01T15:39:53.982Z,101144.91
2022-09-01T15:42:22.176Z,101140.72
2022-09-01T15:44:49.611Z,101146.63
2022-09-01T15:47:23.323Z,101147.50
2022-09-01T15:49:53.457Z,101144.63
2022-09-01T15:52:21.885Z,101142.53
2022-09-01T15:54:52.256Z,101150.13
2022-09-01T15:57:20.071Z,101150.72
2022-09-01T15:59:47.534Z,101162.50
2022-09-01T16:02:17.976Z,101156.41
2022-09-01T16:04:45.318Z,101150.25
2022-09-01T16:07:12.605Z,101146.84
2022-09-01T16:09:40.822Z,101149.97
2022-09-01T16:12:11.012Z,101140.00
2022-09-01T16:14:41.601Z,101135.22
2022-09-01T16:17:19.289Z,101146.78
2022-09-01T16:19:54.739Z,101146.66
2022-09-01T16:22:28.522Z,101132.94
2022-09-01T16:25:02.473Z,101141.59
2022-09-01T16:27:34.189Z,101135.28
2022-09-01T16:30:10.735Z,101138.38
2022-09-01T16:32:42.178Z,101136.78
2022-09-01T16:35:09.862Z,101132.50
2022-09-01T16:37:52.966Z,101129.41
2022-09-01T16:40:47.197Z,101125.81
2022-09-01T16:43:39.600Z,101120.44
2022-09-01T16:46:23.902Z,101115.81
2022-09-01T16:49:18.697Z,101114.25
2022-09-01T16:52:29.455Z,101111.31
2022-09-01T16:55:26.142Z,101118.31
2022-09-01T16:58:09.703Z,101116.22
2022-09-01T17:01:02.522Z,101116.97
2022-09-01T17:03:56.643Z,101121.91
2022-09-01T17:06:32.122Z,101116.34
2022-09-01T17:09:21.902Z,101118.34
2022-09-01T17:11:54.894Z,101116.28
2022-09-01T17:14:40.224Z,101116.41
2022-09-01T17:17:10.842Z,101117.94
2022-09-01T17:19:45.964Z,101116.16
2022-09-01T17:22:22.206Z,101112.44
2022-09-01T17:24:58.880Z,101125.38
2022-09-01T17:27:40.653Z,101112.19
2022-09-01T17:30:08.792Z,101107.41
2022-09-01T17:32:50.088Z,101116.72
2022-09-01T17:35:36.185Z,101121.13
2022-09-01T17:38:28.753Z,101129.50
2022-09-01T17:41:26.088Z,101124.28
2022-09-01T17:44:19.640Z,101122.66
2022-09-01T17:46:56.601Z,101122.47
2022-09-01T17:50:07.285Z,101111.81
2022-09-01T17:52:37.310Z,101119.88
2022-09-01T17:55:30.426Z,101115.13
2022-09-01T17:58:39.558Z,101106.84
2022-09-01T18:01:21.926Z,101102.75
2022-09-01T18:04:30.978Z,101098.84
2022-09-01T18:07:23.337Z,101107.69
2022-09-01T18:10:02.266Z,101104.09
2022-09-01T18:12:38.547Z,101112.66
2022-09-01T18:15:18.167Z,101105.22
2022-09-01T18:18:17.032Z,101100.09
2022-09-01T18:20:50.042Z,101103.25
2022-09-01T18:23:25.056Z,101107.94
2022-09-01T18:26:36.489Z,101102.25
2022-09-01T18:29:06.067Z,101106.84
2022-09-01T18:31:35.268Z,101109.75
2022-09-01T18:34:31.090Z,101118.25
2022-09-01T18:37:07.977Z,101118.47
2022-09-01T18:39:59.936Z,101124.34
2022-09-01T18:42:49.624Z,101130.09
2022-09-01T18:45:51.455Z,101127.53
2022-09-01T18:48:39.100Z,101129.03
2022-09-01T18:51:22.099Z,101136.28
2022-09-01T18:54:18.738Z,101134.94
2022-09-01T18:57:14.348Z,101133.53
2022-09-01T19:00:04.251Z,101131.94
2022-09-01T19:03:14.317Z,101129.50
2022-09-01T19:06:07.041Z,101135.00
2022-09-01T19:09:16.743Z,101146.00
2022-09-01T19:12:29.227Z,101148.97
2022-09-01T19:15:41.689Z,101153.31
2022-09-01T19:18:34.043Z,101152.38
2022-09-01T19:21:15.018Z,101145.50
2022-09-01T19:24:23.790Z,101149.94
2022-09-01T19:27:05.530Z,101155.72
2022-09-01T19:30:11.341Z,101150.69
2022-09-01T19:32:39.790Z,101155.09
2022-09-01T19:35:29.614Z,101148.78
2022-09-01T19:38:07.940Z,101155.91
2022-09-01T19:40:42.738Z,101158.47
2022-09-01T19:43:25.441Z,101161.59
2022-09-01T19:46:27.119Z,101165.66
2022-09-01T19:49:24.527Z,101172.47
2022-09-01T19:52:10.125Z,101178.63
2022-09-01T19:54:47.572Z,101180.44
2022-09-01T19:57:31.693Z,101185.22
2022-09-01T20:00:22.550Z,101181.75
2022-09-01T20:03:19.613Z,101180.25
2022-09-01T20:06:04.786Z,101181.84
2022-09-01T20:09:11.093Z,101184.53
2022-09-01T20:11:48.595Z,101191.78
2022-09-01T20:14:44.846Z,101190.66
2022-09-01T20:18:09.875Z,101202.09
2022-09-01T20:20:47.533Z,101203.53
2022-09-01T20:23:46.592Z,101197.88
2022-09-01T20:26:24.033Z,101204.56
2022-09-01T20:29:12.949Z,101205.22
2022-09-01T20:35:03.293Z,101205.00
2022-09-01T20:37:55.088Z,101207.72
2022-09-01T20:40:38.953Z,101205.53
2022-09-01T20:43:37.652Z,101203.19
2022-09-01T20:46:12.985Z,101188.78
2022-09-01T20:48:48.798Z,101178.06
2022-09-01T20:51:36.045Z,101175.66
2022-09-01T20:55:14.306Z,101177.41
2022-09-01T20:58:25.941Z,101190.44
2022-09-01T21:01:18.046Z,101191.03
2022-09-01T21:04:19.536Z,101200.84
2022-09-01T21:08:02.955Z,101213.16
2022-09-01T21:11:02.269Z,101212.19
2022-09-01T21:14:09.304Z,101201.84
2022-09-01T21:17:21.686Z,101192.97
2022-09-01T21:20:24.121Z,101193.03
2022-09-01T21:22:56.568Z,101200.84
2022-09-01T21:25:28.952Z,101197.19
2022-09-01T21:28:04.228Z,101199.66
2022-09-01T21:30:36.490Z,101200.72
2022-09-01T21:33:11.871Z,101198.69
2022-09-01T21:35:42.379Z,101196.38
2022-09-01T21:38:12.212Z,101194.31
2022-09-01T21:40:45.791Z,101197.66
2022-09-01T21:43:30.295Z,101189.41
2022-09-01T21:46:01.186Z,101181.41
2022-09-01T21:48:32.059Z,101180.78
2022-09-01T21:51:09.743Z,101181.47
2022-09-01T21:53:38.289Z,101176.28
2022-09-01T21:56:10.770Z,101175.28
2022-09-01T21:58:40.953Z,101170.13
2022-09-01T22:01:08.333Z,101167.63
2022-09-01T22:03:40.739Z,101169.25
2022-09-01T22:06:17.175Z,101169.53
2022-09-01T22:08:50.879Z,101178.56
2022-09-01T22:11:24.238Z,101169.00
2022-09-01T22:13:54.155Z,101166.50
2022-09-01T22:16:28.201Z,101174.13
2022-09-01T22:18:56.669Z,101169.03
2022-09-01T22:21:26.068Z,101173.69
2022-09-01T22:23:54.573Z,101173.97
2022-09-01T22:26:30.998Z,101181.06
2022-09-01T22:29:05.197Z,101177.34
2022-09-01T22:31:37.892Z,101187.31
2022-09-01T22:34:14.982Z,101183.50
2022-09-01T22:36:49.385Z,101192.06
2022-09-01T22:39:19.513Z,101191.34
2022-09-01T22:41:54.232Z,101200.34
2022-09-01T22:44:22.327Z,101200.13
2022-09-01T22:46:51.929Z,101193.81
2022-09-01T22:49:20.133Z,101197.44
2022-09-01T22:51:51.883Z,101201.84
2022-09-01T22:54:22.090Z,101201.88
2022-09-01T22:56:53.642Z,101193.69
2022-09-01T22:59:26.275Z,101193.75
2022-09-01T23:01:55.272Z,101195.44
2022-09-01T23:04:26.266Z,101194.66
2022-09-01T23:06:54.615Z,101197.22
2022-09-01T23:09:22.704Z,101200.00
2022-09-01T23:11:52.726Z,101200.97
2022-09-01T23:14:24.278Z,101193.00
2022-09-01T23:16:57.827Z,101189.53
2022-09-01T23:19:27.832Z,101183.22
2022-09-01T23:21:55.340Z,101166.38
2022-09-01T23:24:31.488Z,101164.66
2022-09-01T23:27:00.219Z,101158.38
2022-09-01T23:29:28.463Z,101172.88
2022-09-01T23:31:57.246Z,101165.91
2022-09-01T23:34:28.571Z,101168.53
2022-09-01T23:36:56.904Z,101166.94
2022-09-01T23:39:27.624Z,101167.81
2022-09-01T23:41:55.379Z,101163.28
2022-09-01T23:44:28.773Z,101169.66
2022-09-01T23:46:58.941Z,101163.59
2022-09-01T23:49:28.560Z,101161.81
2022-09-01T23:51:56.464Z,101165.38
2022-09-01T23:54:26.987Z,101168.22
2022-09-01T23:57:02.146Z,101165.63
2022-09-01T23:59:46.619Z,101166.53
